Latest Weather Observations for Nullo Mountain

IDN60801

Issued at 4:33 pm EST Thursday 29 September 2016 (issued every 30 minutes, with the page automatically refreshed every 10 minutes)

About weather observations | Map of weather stations | Latest weather observations for NSW | Other Formats
Station Details ID: 062100 Name: NULLO MOUNTAIN AWS Lat: -32.72 Lon: 150.23 Height: 1130.0 m
Data from the previous 72 hours. | See also: Recent months at Nullo Mountain
Date/Time
EST
Temp
°C
App
Temp
°C
Dew
Point
°C
Rel
Hum
%
Delta-T
°C
Wind Press
QNH
hPa
Press
MSL
hPa
Rain since
9am
mm
Dir  Spd
km/h
Gust
km/h
Spd
kts
Gust
kts
29/04:30pm 8.5 4.0 4.1 74 2.1 NW 17 32 9 17 - - 6.6
29/04:00pm 9.1 4.1 3.7 69 2.5 NW 19 37 10 20 - - 6.6
29/03:30pm 9.7 4.7 3.4 65 2.9 NW 19 35 10 19 - - 6.6
29/03:00pm 10.4 6.2 3.7 63 3.2 NW 15 39 8 21 - - 6.6
29/02:30pm 9.5 4.9 3.5 66 2.8 NW 17 33 9 18 - - 6.6
29/02:00pm 9.1 4.0 4.1 71 2.3 NNW 20 35 11 19 - - 6.6
29/01:30pm 7.7 2.7 4.8 82 1.4 NNW 20 41 11 22 - - 6.6
29/01:00pm 7.7 4.3 7.7 100 0.0 NNW 15 24 8 13 - - 6.4
29/12:30pm 9.0 5.2 9.0 100 0.0 NW 19 37 10 20 - - 6.4
29/12:00pm 9.6 5.0 9.6 100 0.0 NNW 24 37 13 20 - - 6.2
29/11:30am 9.3 5.0 9.3 100 0.0 N 22 37 12 20 - - 4.2
29/11:00am 9.2 5.2 9.2 100 0.0 N 20 37 11 20 - - 2.4
29/10:30am 8.9 4.5 8.9 100 0.0 N 22 35 12 19 - - 1.6
29/10:00am 8.7 3.5 8.7 100 0.0 N 26 50 14 27 - - 1.0
29/09:39am 8.4 2.7 8.4 100 0.0 N 28 48 15 26 - - 0.8
29/09:30am 8.1 3.9 8.1 100 0.0 N 20 35 11 19 - - 0.6
29/09:00am 7.8 3.5 7.8 100 0.0 N 20 32 11 17 - - 6.6
29/08:30am 7.5 3.1 7.5 100 0.0 NNE 20 37 11 20 - - 5.4
29/08:00am 7.3 3.0 7.2 99 0.0 NNE 19 32 10 17 - - 5.0
29/07:30am 7.2 3.2 6.6 96 0.3 N 17 30 9 16 - - 4.4
29/07:00am 7.5 2.9 6.3 92 0.6 N 20 32 11 17 - - 3.2
29/06:30am 7.9 3.1 5.5 85 1.2 N 20 35 11 19 - - 0.8
29/06:00am 8.8 4.4 5.0 77 1.8 NNE 17 28 9 15 - - 0.2
29/05:30am 8.3 4.3 4.9 79 1.6 NNE 15 28 8 15 - - 0.2
29/05:00am 9.1 4.8 3.3 67 2.7 NNE 15 26 8 14 - - 0.0
29/04:30am 9.1 4.3 2.7 64 2.9 NNE 17 30 9 16 - - 0.0
29/04:00am 8.9 4.1 2.7 65 2.8 NNE 17 33 9 18 - - 0.0
29/03:30am 9.1 4.6 2.2 62 3.1 NNE 15 22 8 12 - - 0.0
29/03:00am 9.2 4.6 1.6 59 3.4 NNE 15 24 8 13 - - 0.0
29/02:30am 9.2 4.7 2.1 61 3.2 NNE 15 24 8 13 - - 0.0
29/02:00am 8.0 4.2 1.8 65 2.7 N 11 17 6 9 - - 0.0
29/01:30am 7.9 4.2 2.2 67 2.5 NNE 11 17 6 9 - - 0.0
29/01:00am 7.7 3.7 2.6 70 2.3 NNE 13 20 7 11 - - 0.0
29/12:30am 7.7 3.7 2.8 71 2.2 NNE 13 22 7 12 - - 0.0
29/12:00am 7.7 3.8 3.4 74 2.0 NNE 13 20 7 11 - - 0.0
 
Date/Time
EST
Temp
°C
App
Temp
°C
Dew
Point
°C
Rel
Hum
%
Delta-T
°C
Wind Press
QNH
hPa
Press
MSL
hPa
Rain since
9am
mm
Dir  Spd
km/h
Gust
km/h
Spd
kts
Gust
kts
28/11:30pm 7.9 4.3 3.2 72 2.1 NNE 11 20 6 11 - - 0.0
28/11:00pm 7.8 4.3 3.3 73 2.1 NNE 11 19 6 10 - - 0.0
28/10:30pm 7.0 3.7 2.7 74 1.9 NE 9 15 5 8 - - 0.0
28/10:00pm 6.2 3.7 1.5 72 2.0 NE 4 7 2 4 - - 0.0
28/09:30pm 7.1 4.3 1.8 69 2.3 NE 6 11 3 6 - - 0.0
28/09:00pm 6.9 4.0 1.2 67 2.5 NE 6 11 3 6 - - 0.0
28/08:30pm 7.6 4.7 1.5 65 2.7 ENE 6 9 3 5 - - 0.0
28/08:00pm 7.9 5.1 2.0 66 2.6 NE 6 11 3 6 - - 0.0
28/07:30pm 7.9 5.0 2.6 69 2.4 NE 7 11 4 6 - - 0.0
28/07:00pm 8.0 5.3 2.5 68 2.5 NE 6 11 3 6 - - 0.0
28/06:30pm 8.8 5.5 2.4 64 2.9 NNE 9 17 5 9 - - 0.0
28/06:00pm 9.5 5.8 2.4 61 3.2 NNE 11 17 6 9 - - 0.0
28/05:30pm 11.0 7.7 2.6 56 3.9 NNE 9 19 5 10 - - 0.0
28/05:00pm 11.9 8.3 2.9 54 4.2 N 11 19 6 10 - - 0.0
28/04:30pm 12.9 10.2 2.7 50 4.8 NNE 6 9 3 5 - - 0.0
28/04:00pm 13.3 10.7 3.4 51 4.7 NNE 6 9 3 5 - - 0.0
28/03:30pm 13.4 10.7 3.5 51 4.7 NE 7 11 4 6 - - 0.0
28/03:00pm 13.9 11.4 3.9 51 4.9 NNE 6 15 3 8 - - 0.0
28/02:30pm 13.2 10.4 3.3 51 4.7 E 7 11 4 6 - - 0.0
28/02:00pm 14.1 11.7 4.4 52 4.8 N 6 9 3 5 - - 0.0
28/01:30pm 13.5 10.8 2.4 47 5.2 NW 6 11 3 6 - - 0.0
28/01:00pm 13.0 10.4 3.4 52 4.6 ESE 6 9 3 5 - - 0.0
28/12:30pm 12.7 10.6 3.9 55 4.2 NE 4 7 2 4 - - 0.0
28/12:00pm 12.5 10.0 3.5 54 4.3 WNW 6 11 3 6 - - 0.0
28/11:30am 12.0 9.2 3.0 54 4.2 NNE 7 13 4 7 - - 0.0
28/11:00am 10.7 8.1 3.0 59 3.6 SE 6 11 3 6 - - 0.0
28/10:30am 10.9 8.5 2.2 55 4.0 NE 4 9 2 5 - - 0.0
28/10:00am 10.0 7.1 2.6 60 3.4 E 7 13 4 7 - - 0.0
28/09:30am 9.7 6.7 0.9 54 3.9 NE 6 9 3 5 - - 0.0
28/09:00am 8.6 5.3 -0.9 51 4.0 N 6 9 3 5 - - 0.0
28/08:30am 8.1 5.0 -0.1 56 3.5 E 6 9 3 5 - - 0.0
28/08:00am 7.7 4.3 -0.3 57 3.4 ESE 7 11 4 6 - - 0.0
28/07:30am 7.3 3.9 -0.6 57 3.3 ESE 7 9 4 5 - - 0.0
28/07:00am 5.4 2.8 1.0 73 1.9 ESE 4 6 2 3 - - 0.0
28/06:30am 3.6 0.5 0.1 78 1.4 SSE 6 9 3 5 - - 0.0
28/06:00am 3.1 -1.3 0.2 81 1.2 S 13 15 7 8 - - 0.0
28/05:30am 2.9 -1.5 0.5 84 1.0 S 13 19 7 10 - - 0.0
28/05:00am 2.9 -1.8 1.0 87 0.8 S 15 22 8 12 - - 0.0
28/04:30am 2.8 -1.5 1.2 89 0.7 S 13 20 7 11 - - 0.0
28/04:00am 2.8 -1.1 1.0 88 0.7 S 11 19 6 10 - - 0.0
28/03:30am 2.4 -1.1 1.2 92 0.5 S 9 13 5 7 - - 0.0
28/03:00am 2.6 -0.9 1.0 89 0.7 SSW 9 15 5 8 - - 0.0
28/02:30am 2.5 -0.5 0.9 89 0.7 WSW 6 9 3 5 - - 0.0
28/02:00am 2.6 -0.4 0.8 88 0.7 SW 6 11 3 6 - - 0.0
28/01:30am 2.7 0.1 0.8 87 0.8 WSW 4 9 2 5 - - 0.0
28/01:00am 3.0 -0.2 0.9 86 0.9 SW 7 13 4 7 - - 0.0
28/12:30am 3.2 -0.8 0.8 84 1.0 SSW 11 19 6 10 - - 0.0
28/12:00am 3.1 -0.2 0.3 82 1.1 SW 7 15 4 8 - - 0.0
 
Date/Time
EST
Temp
°C
App
Temp
°C
Dew
Point
°C
Rel
Hum
%
Delta-T
°C
Wind Press
QNH
hPa
Press
MSL
hPa
Rain since
9am
mm
Dir  Spd
km/h
Gust
km/h
Spd
kts
Gust
kts
27/11:30pm 3.2 -0.4 0.4 82 1.1 SSW 9 19 5 10 - - 0.0
27/11:00pm 3.8 -0.2 0.7 80 1.3 SW 11 24 6 13 - - 0.0
27/10:30pm 3.9 -0.5 0.6 79 1.4 WSW 13 24 7 13 - - 0.0
27/10:00pm 4.2 -0.5 0.9 79 1.4 WSW 15 26 8 14 - - 0.0
27/09:30pm 4.2 -0.9 0.5 77 1.5 WSW 17 28 9 15 - - 0.0
27/09:00pm 4.5 -0.3 0.5 75 1.7 WSW 15 24 8 13 - - 0.0
27/08:30pm 5.0 0.6 0.4 72 1.9 W 13 22 7 12 - - 0.0
27/08:00pm 5.3 0.9 0.3 70 2.1 W 13 20 7 11 - - 0.0
27/07:30pm 5.8 1.4 0.2 67 2.3 W 13 22 7 12 - - 0.0
27/07:00pm 6.1 1.6 -0.4 63 2.7 WSW 13 33 7 18 - - 0.0
27/06:30pm 6.7 1.7 -1.4 56 3.3 W 15 26 8 14 - - 0.0
27/06:00pm 7.4 1.5 -2.3 50 3.9 W 19 33 10 18 - - 0.0
27/05:30pm 8.4 2.4 -2.8 45 4.5 W 19 37 10 20 - - 0.0
27/05:00pm 9.3 3.5 -1.7 46 4.5 W 19 44 10 24 - - 0.0
27/04:30pm 9.8 2.8 -3.5 39 5.3 W 24 44 13 24 - - 0.0
27/04:00pm 11.1 6.0 -1.6 41 5.3 W 15 28 8 15 - - 0.0
27/03:30pm 11.2 5.6 -2.9 37 5.8 WNW 17 33 9 18 - - 0.0
27/03:00pm 11.3 4.6 -1.1 42 5.3 W 24 48 13 26 - - 0.0
27/02:30pm 11.6 6.0 1.3 49 4.6 W 20 46 11 25 - - 0.0
27/02:15pm 10.9 3.9 1.7 53 4.2 W 28 48 15 26 - - 0.0
27/02:00pm 12.0 6.8 3.8 57 3.9 W 20 43 11 23 - - 0.0
27/01:30pm 11.1 5.2 4.1 62 3.3 WNW 24 48 13 26 - - 0.0
27/01:22pm 11.8 5.2 4.3 60 3.6 WNW 28 57 15 31 - - 0.0
27/01:00pm 12.6 8.2 6.4 66 3.1 WNW 19 37 10 20 - - 0.0
27/12:30pm 12.6 7.3 5.1 60 3.7 NW 22 43 12 23 - - 0.0
27/12:00pm 12.8 7.6 5.5 61 3.6 NW 22 46 12 25 - - 0.0
27/11:30am 11.2 4.1 3.3 58 3.7 WNW 30 50 16 27 - - 0.0
27/11:07am 11.4 4.7 3.7 59 3.7 NW 28 46 15 25 - - 0.0
27/11:00am 11.1 4.8 3.9 61 3.4 WNW 26 63 14 34 - - 0.0
27/10:30am 11.5 5.6 4.0 60 3.6 NW 24 54 13 29 - - 0.0
27/10:00am 11.1 5.7 4.3 63 3.3 NW 22 48 12 26 - - 0.0
27/09:30am 10.2 5.1 3.9 65 3.0 WNW 20 37 11 20 - - 0.0
27/09:00am 9.3 4.8 4.1 70 2.4 NW 17 33 9 18 - - 0.0
27/08:30am 8.2 4.0 4.0 75 2.0 NW 15 32 8 17 - - 0.0
27/08:00am 7.0 2.7 3.3 77 1.7 NW 15 32 8 17 - - 0.0
27/07:30am 6.2 1.9 3.0 80 1.4 NW 15 26 8 14 - - 0.0
27/07:00am 5.4 1.3 2.1 79 1.4 NW 13 20 7 11 - - 0.0
27/06:30am 5.0 0.8 1.8 80 1.4 NW 13 26 7 14 - - 0.0
27/06:00am 4.7 0.9 1.6 80 1.3 NW 11 26 6 14 - - 0.0
27/05:30am 4.6 0.8 1.6 81 1.3 NW 11 20 6 11 - - 0.0
27/05:00am 4.3 0.8 1.5 82 1.2 NW 9 22 5 12 - - 0.0
27/04:30am 4.1 0.3 1.5 83 1.1 NW 11 19 6 10 - - 0.0
27/04:00am 3.6 0.5 1.2 84 1.0 NW 7 15 4 8 - - 0.0
27/03:30am 3.9 0.7 0.9 81 1.2 WNW 7 17 4 9 - - 0.0
27/03:00am 4.0 0.8 1.0 81 1.3 WNW 7 15 4 8 - - 0.0
27/02:30am 3.7 0.7 0.8 81 1.2 WNW 6 9 3 5 - - 0.0
27/02:00am 3.9 0.8 1.1 82 1.2 WNW 7 13 4 7 - - 0.0
27/01:30am 3.7 0.5 0.8 81 1.2 WNW 7 11 4 6 - - 0.0
27/01:00am 4.0 1.1 1.2 82 1.2 WNW 6 15 3 8 - - 0.0
27/12:30am 3.8 0.7 1.2 83 1.1 WNW 7 13 4 7 - - 0.0
27/12:00am 3.8 0.6 1.0 82 1.2 W 7 15 4 8 - - 0.0
 
Date/Time
EST
Temp
°C
App
Temp
°C
Dew
Point
°C
Rel
Hum
%
Delta-T
°C
Wind Press
QNH
hPa
Press
MSL
hPa
Rain since
9am
mm
Dir  Spd
km/h
Gust
km/h
Spd
kts
Gust
kts
26/11:30pm 4.0 0.8 1.0 81 1.3 W 7 13 4 7 - - 0.0
26/11:00pm 4.0 0.4 0.9 80 1.3 W 9 15 5 8 - - 0.0
26/10:30pm 4.2 0.6 0.9 79 1.4 W 9 17 5 9 - - 0.0
26/10:00pm 4.2 1.0 0.5 77 1.5 W 7 15 4 8 - - 0.0
26/09:30pm 4.4 1.1 0.4 75 1.6 WNW 7 15 4 8 - - 0.0
26/09:00pm 4.9 0.9 0.3 72 1.9 W 11 20 6 11 - - 0.0
26/08:30pm 5.2 1.2 0.2 70 2.1 W 11 19 6 10 - - 0.0
26/08:00pm 5.3 1.6 0.1 69 2.1 W 9 15 5 8 - - 0.0
26/07:30pm 5.6 2.0 0.4 69 2.2 W 9 13 5 7 - - 0.0
26/07:00pm 6.1 1.7 0.2 66 2.5 W 13 28 7 15 - - 0.0
26/06:30pm 6.8 2.5 0.9 66 2.5 WSW 13 22 7 12 - - 0.0
26/06:00pm 7.1 2.8 1.0 65 2.6 W 13 22 7 12 - - 0.0
26/05:30pm 8.0 3.1 2.3 67 2.5 W 17 33 9 18 - - 0.0
26/05:00pm 8.7 5.1 2.9 67 2.6 W 11 22 6 12 - - 0.0

Other Formats:

Comma delimited format used in spreadsheet applications
http://www.bom.gov.au/fwo/IDN60801/IDN60801.94754.axf

JavaScript Object Notation format (JSON) in row-major order
http://www.bom.gov.au/fwo/IDN60801/IDN60801.94754.json